Containerships 6 — DABH — position and weather

sailwx.info

Track history (hours):
 
Tides and Currents Weather Stations Pressure Air Temp Water Temp Dewpoint Dewpoint Depression Visibility Wind Speed Wind Dir Waves Ship Positions

Containerships 6

Last reported at 2017-Apr-30 08:30 UTC. Time now 2017-Apr-30 08:47 UTC.
Position N 51°53' E 004°25'.

Length 155 m; beam 21.8 m; draft 8.9 m.

Type: Ship (hazmat cat A). MMSI: 211315096.

Date/timePositionNaut miles runAvg speedWind from/ knotsBaromVisibWave heightAir tempDewpointWater temp
2017-Apr-30 08:30N 51°53' E 004°25'0 0.0
2017-Apr-30 08:00N 51°53' E 004°25'0 0.0
2017-Apr-30 07:30N 51°53' E 004°25'0 0.0
2017-Apr-30 07:00N 51°53' E 004°25'0 0.0
2017-Apr-30 06:30N 51°53' E 004°25'0 0.0
2017-Apr-30 06:00N 51°53' E 004°25'0 0.0
2017-Apr-30 05:30N 51°53' E 004°25'0 0.0
2017-Apr-30 05:00N 51°53' E 004°25'0 0.0
2017-Apr-30 04:30N 51°53' E 004°25'0 0.0
2017-Apr-30 04:00N 51°53' E 004°25'0 0.0
2017-Apr-30 03:30N 51°53' E 004°25'0 0.0
2017-Apr-30 03:00N 51°53' E 004°25'0 0.0
2017-Apr-30 02:30N 51°53' E 004°25'0 0.0
2017-Apr-30 02:00N 51°53' E 004°25'0 0.0
2017-Apr-30 01:30N 51°53' E 004°25'0 0.0
2017-Apr-30 01:00N 51°53' E 004°25'0 0.0
2017-Apr-30 00:30N 51°53' E 004°25'0 0.0
2017-Apr-30 00:00N 51°53' E 004°25'0 0.0
2017-Apr-29 23:30N 51°53' E 004°25'0 0.0
2017-Apr-29 23:00N 51°53' E 004°25'0 0.0
2017-Apr-29 22:30N 51°53' E 004°25'0 0.0
2017-Apr-29 22:00N 51°53' E 004°25'0 0.0
2017-Apr-29 21:30N 51°53' E 004°25'0 0.0
2017-Apr-29 21:00N 51°53' E 004°25'0 0.0
2017-Apr-29 20:30N 51°53' E 004°25'0 0.0
2017-Apr-29 20:00N 51°53' E 004°25'0 0.0
2017-Apr-29 19:30N 51°53' E 004°25'0 0.0
2017-Apr-29 19:00N 51°53' E 004°25'0 0.0
2017-Apr-29 18:30N 51°53' E 004°25'0 0.0
2017-Apr-29 18:00N 51°53' E 004°25'0 0.0
2017-Apr-29 17:30N 51°53' E 004°25'0 0.0
2017-Apr-29 17:01N 51°53' E 004°25'0 0.0
2017-Apr-29 16:30N 51°53' E 004°25'0 0.0
2017-Apr-29 16:01N 51°53' E 004°25'0 0.0
2017-Apr-29 15:31N 51°53' E 004°25'0 0.0
2017-Apr-29 15:01N 51°53' E 004°25'0 0.0
2017-Apr-29 14:00N 51°53' E 004°25'1 1.2
2017-Apr-29 13:31N 51°53' E 004°24'4 8.5
2017-Apr-29 13:00N 51°54' E 004°17'612.6
2017-Apr-29 12:30N 51°58' E 004°09'713.7
2017-Apr-29 12:01N 52°00' E 003°59'918.3
2017-Apr-29 11:30N 52°02' E 003°44'1018.4
2017-Apr-29 10:59N 52°07' E 003°31'5819.6
2017-Apr-29 08:02N 52°40' E 002°13'119.9
2017-Apr-29 08:00N 52°40' E 002°12'1020.4
2017-Apr-29 07:30N 52°46' E 001°58'1020.2
2017-Apr-29 07:00N 52°51' E 001°44'1019.5
2017-Apr-29 06:30N 52°58' E 001°33'1019.3
2017-Apr-29 06:00N 53°06' E 001°24'1019.0
2017-Apr-29 05:30N 53°14' E 001°14'1019.3
2017-Apr-29 05:00N 53°22' E 001°06'3919.3
2017-Apr-29 02:58N 53°54' E 000°28'918.9
2017-Apr-29 02:30N 54°01' E 000°18'918.7
2017-Apr-29 02:01N 54°08' E 000°08'918.2
2017-Apr-29 01:30N 54°15' W 000°03'918.1
2017-Apr-29 01:00N 54°21' W 000°13'918.0
2017-Apr-29 00:30N 54°28' W 000°24'28 2.3
2017-Apr-28 12:24N 54°42' W 001°05'718.2
2017-Apr-28 12:01N 54°45' W 000°54'42618.0
2017-Apr-27 12:25N 57°49' E 010°38'717.3
2017-Apr-27 12:00N 57°47' E 010°51'918.4
2017-Apr-27 11:30N 57°41' E 011°03'918.7
2017-Apr-27 11:00N 57°35' E 011°16'918.7
2017-Apr-27 10:31N 57°28' E 011°28'918.6
2017-Apr-27 10:01N 57°19' E 011°33'918.5
2017-Apr-27 09:30N 57°10' E 011°39'918.9
2017-Apr-27 09:00N 57°01' E 011°44'1018.5
2017-Apr-27 08:28N 56°52' E 011°50'1117.2
2017-Apr-27 07:48N 56°40' E 011°48'9117.0
2017-Apr-27 02:27N 55°12' E 011°06'715.7
2017-Apr-27 02:01N 55°06' E 011°03'917.2
2017-Apr-27 01:31N 54°58' E 010°59'917.1
2017-Apr-27 01:01N 54°50' E 010°53'816.5
2017-Apr-27 00:30N 54°42' E 010°55'917.8
2017-Apr-27 00:01N 54°37' E 011°08'917.7
2017-Apr-26 23:31N 54°34' E 011°22'918.1
2017-Apr-26 23:01N 54°30' E 011°36'918.3
2017-Apr-26 22:31N 54°27' E 011°51'918.5
2017-Apr-26 22:01N 54°26' E 012°07'816.0
2017-Apr-26 21:31N 54°33' E 012°14'4417.8
2017-Apr-26 19:03N 54°55' E 013°20'118.8
2017-Apr-26 18:58N 54°56' E 013°22'918.5
2017-Apr-26 18:30N 54°59' E 013°36'918.9
2017-Apr-26 18:00N 55°02' E 013°51'918.6
2017-Apr-26 17:30N 55°07' E 014°06'918.3
2017-Apr-26 17:00N 55°13' E 014°16'918.3
2017-Apr-26 16:31N 55°20' E 014°27'917.9
2017-Apr-26 16:00N 55°26' E 014°39'918.1
2017-Apr-26 15:30N 55°27' E 014°55'918.1
2017-Apr-26 15:01N 55°27' E 015°11'918.3
2017-Apr-26 14:30N 55°27' E 015°27'343 9.1
2017-Apr-25 00:47N 59°34' E 022°51'519.0
2017-Apr-25 00:30N 59°35' E 023°01'1019.2
2017-Apr-25 00:00N 59°38' E 023°19'1019.3
2017-Apr-24 23:30N 59°41' E 023°38'1019.1
2017-Apr-24 23:00N 59°44' E 023°56'1019.1
2017-Apr-24 22:30N 59°46' E 024°14'1019.1
2017-Apr-24 22:00N 59°49' E 024°33'20 1.1
2017-Apr-24 04:25N 59°39' E 023°59'818.9
2017-Apr-24 04:00N 59°36' E 023°45'919.0
2017-Apr-24 03:30N 59°33' E 023°27'918.9
2017-Apr-24 03:00N 59°30' E 023°10'32618.5
2017-Apr-23 09:25N 55°46' E 015°49'1318.6
2017-Apr-23 08:44N 55°40' E 015°29'518.7
2017-Apr-23 08:29N 55°38' E 015°22'919.0
2017-Apr-23 08:00N 55°33' E 015°08'918.9
2017-Apr-23 07:30N 55°28' E 014°53'918.9
2017-Apr-23 07:00N 55°24' E 014°39'918.7
2017-Apr-23 06:30N 55°17' E 014°28'918.1
2017-Apr-23 06:00N 55°11' E 014°16'918.7
2017-Apr-23 05:30N 55°10' E 013°60'1019.0
2017-Apr-23 05:00N 55°11' E 013°43'1119.4
2017-Apr-23 04:27N 55°13' E 013°24'1419.0
2017-Apr-23 03:44N 55°14' E 013°01'419.0
2017-Apr-23 03:30N 55°15' E 012°53'917.0
2017-Apr-23 03:00N 55°18' E 012°39'714.8
2017-Apr-23 02:31N 55°25' E 012°40'714.5
2017-Apr-23 02:01N 55°32' E 012°42'5 9.3
2017-Apr-23 01:31N 55°37' E 012°42'510.3
2017-Apr-23 01:01N 55°42' E 012°41'917.2
2017-Apr-23 00:30N 55°51' E 012°41'917.9
2017-Apr-23 00:01N 55°60' E 012°40'917.3
2017-Apr-22 23:30N 56°07' E 012°31'1019.0
2017-Apr-22 23:00N 56°12' E 012°17'6418.1
2017-Apr-22 19:29N 57°11' E 011°33'918.5
2017-Apr-22 18:59N 57°20' E 011°28'918.3
2017-Apr-22 18:31N 57°28' E 011°23'1018.7
2017-Apr-22 17:59N 57°35' E 011°09'918.6
2017-Apr-22 17:31N 57°41' E 010°57'1018.5
2017-Apr-22 16:59N 57°47' E 010°43'919.2
2017-Apr-22 16:30N 57°46' E 010°26'1019.0
2017-Apr-22 15:58N 57°42' E 010°09'15916.9
2017-Apr-22 06:36N 55°43' E 006°56'1816.8
2017-Apr-22 05:31N 55°28' E 006°38'116.2
2017-Apr-22 05:29N 55°28' E 006°38'916.7
2017-Apr-22 04:55N 55°20' E 006°29'14617.2
2017-Apr-21 20:26N 53°11' E 004°31'717.3
2017-Apr-21 20:00N 53°04' E 004°26'917.4
2017-Apr-21 19:30N 52°56' E 004°20'917.5
2017-Apr-21 19:01N 52°49' E 004°13'917.4
2017-Apr-21 18:30N 52°41' E 004°06'917.6
2017-Apr-21 18:00N 52°34' E 003°58'917.4
2017-Apr-21 17:31N 52°25' E 003°54'917.4
2017-Apr-21 17:01N 52°17' E 003°53'917.5
2017-Apr-21 16:31N 52°08' E 003°55'917.7
2017-Apr-21 16:01N 52°00' E 004°02'714.2
2017-Apr-21 15:30N 51°56' E 004°12'612.0
2017-Apr-21 15:01N 51°54' E 004°20'3 6.0
2017-Apr-21 14:31N 51°53' E 004°25'0 0.0
2017-Apr-21 13:30N 51°53' E 004°25'0 0.0
2017-Apr-21 13:00N 51°53' E 004°25'0 0.0
2017-Apr-21 12:31N 51°53' E 004°25'0 0.0
2017-Apr-21 12:00N 51°53' E 004°25'0 0.0
2017-Apr-21 11:31N 51°53' E 004°25'0 0.0
2017-Apr-21 11:01N 51°53' E 004°25'0 0.0
2017-Apr-21 10:31N 51°53' E 004°25'0 0.0
2017-Apr-21 10:00N 51°53' E 004°25'0 0.0
2017-Apr-21 09:30N 51°53' E 004°25'0 0.0
2017-Apr-21 09:01N 51°53' E 004°25'0 0.0
2017-Apr-21 08:31N 51°53' E 004°25'0 0.0
2017-Apr-21 08:01N 51°53' E 004°25'0 0.0
2017-Apr-21 07:01N 51°53' E 004°25'0 0.0
2017-Apr-21 06:31N 51°53' E 004°25'0 0.0
2017-Apr-21 06:01N 51°53' E 004°25'0 0.0
2017-Apr-21 05:31N 51°53' E 004°25'0 0.0
2017-Apr-21 05:01N 51°53' E 004°25'0 0.0
2017-Apr-21 04:30N 51°53' E 004°25'0 0.0
2017-Apr-21 04:01N 51°53' E 004°25'0 0.0
2017-Apr-21 03:31N 51°53' E 004°25'0 0.0
2017-Apr-21 03:01N 51°53' E 004°25'0 0.0
2017-Apr-21 02:31N 51°53' E 004°25'0 0.0
2017-Apr-21 02:01N 51°53' E 004°25'0 0.0
2017-Apr-21 01:31N 51°53' E 004°25'0 0.0
2017-Apr-21 01:00N 51°53' E 004°25'0 0.0
2017-Apr-21 00:31N 51°53' E 004°25'0 0.0
2017-Apr-21 00:01N 51°53' E 004°25'0 0.0
2017-Apr-20 23:31N 51°53' E 004°25'0 0.0
2017-Apr-20 23:01N 51°53' E 004°25'0 0.0
2017-Apr-20 22:31N 51°53' E 004°25'0 0.0
2017-Apr-20 22:01N 51°53' E 004°25'0 0.0
2017-Apr-20 21:31N 51°53' E 004°25'0 0.0
2017-Apr-20 21:01N 51°53' E 004°25'0 0.0
2017-Apr-20 20:31N 51°53' E 004°25'0 0.0
2017-Apr-20 20:01N 51°53' E 004°25'0 0.0
2017-Apr-20 19:30N 51°53' E 004°25'0 0.0
2017-Apr-20 19:00N 51°53' E 004°25'0 0.0
2017-Apr-20 18:30N 51°53' E 004°25'0 0.0
2017-Apr-20 18:01N 51°53' E 004°25'0 0.0
2017-Apr-20 17:31N 51°53' E 004°25'0 0.0
2017-Apr-20 17:01N 51°53' E 004°25'0 0.0
2017-Apr-20 16:31N 51°53' E 004°25'0 0.0
2017-Apr-20 16:00N 51°53' E 004°25'0 0.0
2017-Apr-20 15:30N 51°53' E 004°25'0 0.0
2017-Apr-20 15:01N 51°53' E 004°25'0 0.3
2017-Apr-20 14:01N 51°53' E 004°25'3 5.6
2017-Apr-20 13:31N 51°54' E 004°20'510.0
2017-Apr-20 13:00N 51°56' E 004°13'511.0
2017-Apr-20 12:30N 51°59' E 004°05'816.6
2017-Apr-20 12:01N 52°01' E 003°52'1019.4
2017-Apr-20 11:30N 52°05' E 003°38'1719.4
2017-Apr-20 10:39N 52°14' E 003°15'  
Track history (hours):
 
Tides and Currents Weather Stations Pressure Air Temp Water Temp Dewpoint Dewpoint Depression Visibility Wind Speed Wind Dir Waves Ship Positions

Containerships 6

Last reported at 2017-Apr-30 08:30 UTC. Time now 2017-Apr-30 08:47 UTC.
Position N 51°53' E 004°25'.

Length 155 m; beam 21.8 m; draft 8.9 m.

Type: Ship (hazmat cat A). MMSI: 211315096.

Date/timePositionNaut miles runAvg speedWind from/ knotsBaromVisibWave heightAir tempDewpointWater temp
2017-Apr-30 08:30N 51°53' E 004°25'0 0.0
2017-Apr-30 08:00N 51°53' E 004°25'0 0.0
2017-Apr-30 07:30N 51°53' E 004°25'0 0.0
2017-Apr-30 07:00N 51°53' E 004°25'0 0.0
2017-Apr-30 06:30N 51°53' E 004°25'0 0.0
2017-Apr-30 06:00N 51°53' E 004°25'0 0.0
2017-Apr-30 05:30N 51°53' E 004°25'0 0.0
2017-Apr-30 05:00N 51°53' E 004°25'0 0.0
2017-Apr-30 04:30N 51°53' E 004°25'0 0.0
2017-Apr-30 04:00N 51°53' E 004°25'0 0.0
2017-Apr-30 03:30N 51°53' E 004°25'0 0.0
2017-Apr-30 03:00N 51°53' E 004°25'0 0.0
2017-Apr-30 02:30N 51°53' E 004°25'0 0.0
2017-Apr-30 02:00N 51°53' E 004°25'0 0.0
2017-Apr-30 01:30N 51°53' E 004°25'0 0.0
2017-Apr-30 01:00N 51°53' E 004°25'0 0.0
2017-Apr-30 00:30N 51°53' E 004°25'0 0.0
2017-Apr-30 00:00N 51°53' E 004°25'0 0.0
2017-Apr-29 23:30N 51°53' E 004°25'0 0.0
2017-Apr-29 23:00N 51°53' E 004°25'0 0.0
2017-Apr-29 22:30N 51°53' E 004°25'0 0.0
2017-Apr-29 22:00N 51°53' E 004°25'0 0.0
2017-Apr-29 21:30N 51°53' E 004°25'0 0.0
2017-Apr-29 21:00N 51°53' E 004°25'0 0.0
2017-Apr-29 20:30N 51°53' E 004°25'0 0.0
2017-Apr-29 20:00N 51°53' E 004°25'0 0.0
2017-Apr-29 19:30N 51°53' E 004°25'0 0.0
2017-Apr-29 19:00N 51°53' E 004°25'0 0.0
2017-Apr-29 18:30N 51°53' E 004°25'0 0.0
2017-Apr-29 18:00N 51°53' E 004°25'0 0.0
2017-Apr-29 17:30N 51°53' E 004°25'0 0.0
2017-Apr-29 17:01N 51°53' E 004°25'0 0.0
2017-Apr-29 16:30N 51°53' E 004°25'0 0.0
2017-Apr-29 16:01N 51°53' E 004°25'0 0.0
2017-Apr-29 15:31N 51°53' E 004°25'0 0.0
2017-Apr-29 15:01N 51°53' E 004°25'0 0.0
2017-Apr-29 14:00N 51°53' E 004°25'1 1.2
2017-Apr-29 13:31N 51°53' E 004°24'4 8.5
2017-Apr-29 13:00N 51°54' E 004°17'612.6
2017-Apr-29 12:30N 51°58' E 004°09'713.7
2017-Apr-29 12:01N 52°00' E 003°59'918.3
2017-Apr-29 11:30N 52°02' E 003°44'1018.4
2017-Apr-29 10:59N 52°07' E 003°31'5819.6
2017-Apr-29 08:02N 52°40' E 002°13'119.9
2017-Apr-29 08:00N 52°40' E 002°12'1020.4
2017-Apr-29 07:30N 52°46' E 001°58'1020.2
2017-Apr-29 07:00N 52°51' E 001°44'1019.5
2017-Apr-29 06:30N 52°58' E 001°33'1019.3
2017-Apr-29 06:00N 53°06' E 001°24'1019.0
2017-Apr-29 05:30N 53°14' E 001°14'1019.3
2017-Apr-29 05:00N 53°22' E 001°06'3919.3
2017-Apr-29 02:58N 53°54' E 000°28'918.9
2017-Apr-29 02:30N 54°01' E 000°18'918.7
2017-Apr-29 02:01N 54°08' E 000°08'918.2
2017-Apr-29 01:30N 54°15' W 000°03'918.1
2017-Apr-29 01:00N 54°21' W 000°13'918.0
2017-Apr-29 00:30N 54°28' W 000°24'28 2.3
2017-Apr-28 12:24N 54°42' W 001°05'718.2
2017-Apr-28 12:01N 54°45' W 000°54'42618.0
2017-Apr-27 12:25N 57°49' E 010°38'717.3
2017-Apr-27 12:00N 57°47' E 010°51'918.4
2017-Apr-27 11:30N 57°41' E 011°03'918.7
2017-Apr-27 11:00N 57°35' E 011°16'918.7
2017-Apr-27 10:31N 57°28' E 011°28'918.6
2017-Apr-27 10:01N 57°19' E 011°33'918.5
2017-Apr-27 09:30N 57°10' E 011°39'918.9
2017-Apr-27 09:00N 57°01' E 011°44'1018.5
2017-Apr-27 08:28N 56°52' E 011°50'1117.2
2017-Apr-27 07:48N 56°40' E 011°48'9117.0
2017-Apr-27 02:27N 55°12' E 011°06'715.7
2017-Apr-27 02:01N 55°06' E 011°03'917.2
2017-Apr-27 01:31N 54°58' E 010°59'917.1
2017-Apr-27 01:01N 54°50' E 010°53'816.5
2017-Apr-27 00:30N 54°42' E 010°55'917.8
2017-Apr-27 00:01N 54°37' E 011°08'917.7
2017-Apr-26 23:31N 54°34' E 011°22'918.1
2017-Apr-26 23:01N 54°30' E 011°36'918.3
2017-Apr-26 22:31N 54°27' E 011°51'918.5
2017-Apr-26 22:01N 54°26' E 012°07'816.0
2017-Apr-26 21:31N 54°33' E 012°14'4417.8
2017-Apr-26 19:03N 54°55' E 013°20'118.8
2017-Apr-26 18:58N 54°56' E 013°22'918.5
2017-Apr-26 18:30N 54°59' E 013°36'918.9
2017-Apr-26 18:00N 55°02' E 013°51'918.6
2017-Apr-26 17:30N 55°07' E 014°06'918.3
2017-Apr-26 17:00N 55°13' E 014°16'918.3
2017-Apr-26 16:31N 55°20' E 014°27'917.9
2017-Apr-26 16:00N 55°26' E 014°39'918.1
2017-Apr-26 15:30N 55°27' E 014°55'918.1
2017-Apr-26 15:01N 55°27' E 015°11'918.3
2017-Apr-26 14:30N 55°27' E 015°27'343 9.1
2017-Apr-25 00:47N 59°34' E 022°51'519.0
2017-Apr-25 00:30N 59°35' E 023°01'1019.2
2017-Apr-25 00:00N 59°38' E 023°19'1019.3
2017-Apr-24 23:30N 59°41' E 023°38'1019.1
2017-Apr-24 23:00N 59°44' E 023°56'1019.1
2017-Apr-24 22:30N 59°46' E 024°14'1019.1
2017-Apr-24 22:00N 59°49' E 024°33'20 1.1
2017-Apr-24 04:25N 59°39' E 023°59'818.9
2017-Apr-24 04:00N 59°36' E 023°45'919.0
2017-Apr-24 03:30N 59°33' E 023°27'918.9
2017-Apr-24 03:00N 59°30' E 023°10'32618.5
2017-Apr-23 09:25N 55°46' E 015°49'1318.6
2017-Apr-23 08:44N 55°40' E 015°29'518.7
2017-Apr-23 08:29N 55°38' E 015°22'919.0
2017-Apr-23 08:00N 55°33' E 015°08'918.9
2017-Apr-23 07:30N 55°28' E 014°53'918.9
2017-Apr-23 07:00N 55°24' E 014°39'918.7
2017-Apr-23 06:30N 55°17' E 014°28'918.1
2017-Apr-23 06:00N 55°11' E 014°16'918.7
2017-Apr-23 05:30N 55°10' E 013°60'1019.0
2017-Apr-23 05:00N 55°11' E 013°43'1119.4
2017-Apr-23 04:27N 55°13' E 013°24'1419.0
2017-Apr-23 03:44N 55°14' E 013°01'419.0
2017-Apr-23 03:30N 55°15' E 012°53'917.0
2017-Apr-23 03:00N 55°18' E 012°39'714.8
2017-Apr-23 02:31N 55°25' E 012°40'714.5
2017-Apr-23 02:01N 55°32' E 012°42'5 9.3
2017-Apr-23 01:31N 55°37' E 012°42'510.3
2017-Apr-23 01:01N 55°42' E 012°41'917.2
2017-Apr-23 00:30N 55°51' E 012°41'917.9
2017-Apr-23 00:01N 55°60' E 012°40'917.3
2017-Apr-22 23:30N 56°07' E 012°31'1019.0
2017-Apr-22 23:00N 56°12' E 012°17'6418.1
2017-Apr-22 19:29N 57°11' E 011°33'918.5
2017-Apr-22 18:59N 57°20' E 011°28'918.3
2017-Apr-22 18:31N 57°28' E 011°23'1018.7
2017-Apr-22 17:59N 57°35' E 011°09'918.6
2017-Apr-22 17:31N 57°41' E 010°57'1018.5
2017-Apr-22 16:59N 57°47' E 010°43'919.2
2017-Apr-22 16:30N 57°46' E 010°26'1019.0
2017-Apr-22 15:58N 57°42' E 010°09'15916.9
2017-Apr-22 06:36N 55°43' E 006°56'1816.8
2017-Apr-22 05:31N 55°28' E 006°38'116.2
2017-Apr-22 05:29N 55°28' E 006°38'916.7
2017-Apr-22 04:55N 55°20' E 006°29'14617.2
2017-Apr-21 20:26N 53°11' E 004°31'717.3
2017-Apr-21 20:00N 53°04' E 004°26'917.4
2017-Apr-21 19:30N 52°56' E 004°20'917.5
2017-Apr-21 19:01N 52°49' E 004°13'917.4
2017-Apr-21 18:30N 52°41' E 004°06'917.6
2017-Apr-21 18:00N 52°34' E 003°58'917.4
2017-Apr-21 17:31N 52°25' E 003°54'917.4
2017-Apr-21 17:01N 52°17' E 003°53'917.5
2017-Apr-21 16:31N 52°08' E 003°55'917.7
2017-Apr-21 16:01N 52°00' E 004°02'714.2
2017-Apr-21 15:30N 51°56' E 004°12'612.0
2017-Apr-21 15:01N 51°54' E 004°20'3 6.0
2017-Apr-21 14:31N 51°53' E 004°25'0 0.0
2017-Apr-21 13:30N 51°53' E 004°25'0 0.0
2017-Apr-21 13:00N 51°53' E 004°25'0 0.0
2017-Apr-21 12:31N 51°53' E 004°25'0 0.0
2017-Apr-21 12:00N 51°53' E 004°25'0 0.0
2017-Apr-21 11:31N 51°53' E 004°25'0 0.0
2017-Apr-21 11:01N 51°53' E 004°25'0 0.0
2017-Apr-21 10:31N 51°53' E 004°25'0 0.0
2017-Apr-21 10:00N 51°53' E 004°25'0 0.0
2017-Apr-21 09:30N 51°53' E 004°25'0 0.0
2017-Apr-21 09:01N 51°53' E 004°25'0 0.0
2017-Apr-21 08:31N 51°53' E 004°25'0 0.0
2017-Apr-21 08:01N 51°53' E 004°25'0 0.0
2017-Apr-21 07:01N 51°53' E 004°25'0 0.0
2017-Apr-21 06:31N 51°53' E 004°25'0 0.0
2017-Apr-21 06:01N 51°53' E 004°25'0 0.0
2017-Apr-21 05:31N 51°53' E 004°25'0 0.0
2017-Apr-21 05:01N 51°53' E 004°25'0 0.0
2017-Apr-21 04:30N 51°53' E 004°25'0 0.0
2017-Apr-21 04:01N 51°53' E 004°25'0 0.0
2017-Apr-21 03:31N 51°53' E 004°25'0 0.0
2017-Apr-21 03:01N 51°53' E 004°25'0 0.0
2017-Apr-21 02:31N 51°53' E 004°25'0 0.0
2017-Apr-21 02:01N 51°53' E 004°25'0 0.0
2017-Apr-21 01:31N 51°53' E 004°25'0 0.0
2017-Apr-21 01:00N 51°53' E 004°25'0 0.0
2017-Apr-21 00:31N 51°53' E 004°25'0 0.0
2017-Apr-21 00:01N 51°53' E 004°25'0 0.0
2017-Apr-20 23:31N 51°53' E 004°25'0 0.0
2017-Apr-20 23:01N 51°53' E 004°25'0 0.0
2017-Apr-20 22:31N 51°53' E 004°25'0 0.0
2017-Apr-20 22:01N 51°53' E 004°25'0 0.0
2017-Apr-20 21:31N 51°53' E 004°25'0 0.0
2017-Apr-20 21:01N 51°53' E 004°25'0 0.0
2017-Apr-20 20:31N 51°53' E 004°25'0 0.0
2017-Apr-20 20:01N 51°53' E 004°25'0 0.0
2017-Apr-20 19:30N 51°53' E 004°25'0 0.0
2017-Apr-20 19:00N 51°53' E 004°25'0 0.0
2017-Apr-20 18:30N 51°53' E 004°25'0 0.0
2017-Apr-20 18:01N 51°53' E 004°25'0 0.0
2017-Apr-20 17:31N 51°53' E 004°25'0 0.0
2017-Apr-20 17:01N 51°53' E 004°25'0 0.0
2017-Apr-20 16:31N 51°53' E 004°25'0 0.0
2017-Apr-20 16:00N 51°53' E 004°25'0 0.0
2017-Apr-20 15:30N 51°53' E 004°25'0 0.0
2017-Apr-20 15:01N 51°53' E 004°25'0 0.3
2017-Apr-20 14:01N 51°53' E 004°25'3 5.6
2017-Apr-20 13:31N 51°54' E 004°20'510.0
2017-Apr-20 13:00N 51°56' E 004°13'511.0
2017-Apr-20 12:30N 51°59' E 004°05'816.6
2017-Apr-20 12:01N 52°01' E 003°52'1019.4
2017-Apr-20 11:30N 52°05' E 003°38'1719.4
2017-Apr-20 10:39N 52°14' E 003°15'  

Dump ship's entire track history